KEDJ Airport (Bellefontaine Rgnl) Information

FAA: EDJ - ICAO: KEDJ

KEDJ Airport Location

State Ohio
County Logan
City Bellefontaine
KEDJ Airport is 3 miles west of Bellefontaine, OH.
Latitude 40-22-20.2000N
Longitude 083-49-09.3000W
Elevation 1,121ft

KEDJ Airport METARs

METAR KEDJ 181255Z AUTO 25004KT 10SM OVC020 M04/M06 A3006 RMK A01
Altimeter 30.06"
Temperature -4.0°C (24.8°F)
Wind 250° at 4KT
Clouds overcast at 2,000ft
Visibility 10.0mi
Time observed: 2022-01-18T12:55:00Z

KEDJ Airport Details

Status Operational
Activation August 2002
Ownership Public
Usage Public
Chart DETROIT
ATC on-site No
Beacon schedule sunset-sunrise
Beacon color clear green

KEDJ Airport Contacts

Owner CITY OF BELLEFONTAINE
Owner address CITY HALL, 135 N DETROIT ST, BELLEFONTAINE, OH 43311
Owner phone 937-592-4376
Manager RON MANCHESTER
Manager address 1025 CENTER ST, ASHLAND, OH 44805
Manager phone 419-289-0491

KEDJ Airport (Bellefontaine Rgnl) Radio Frequencies

KEDJ (Airport) Radio Frequencies

UNICOM 122.8
Common traffic advisory frequency (CTAF) 122.8